sensor_id;sensor_type;location;lat;lon;timestamp;pressure;altitude;pressure_sealevel;temperature;humidity
25350;BME280;13302;48.796;11.978;2023-09-19T00:00:25;96479.78;;;17.30;44.79
25350;BME280;13302;48.796;11.978;2023-09-19T00:03:15;96486.56;;;17.29;44.93
25350;BME280;13302;48.796;11.978;2023-09-19T00:06:03;96492.16;;;17.29;44.80
25350;BME280;13302;48.796;11.978;2023-09-19T00:08:50;96490.59;;;17.28;45.00
25350;BME280;13302;48.796;11.978;2023-09-19T00:11:37;96484.19;;;17.27;45.05
25350;BME280;13302;48.796;11.978;2023-09-19T00:14:25;96488.97;;;17.27;45.00
25350;BME280;13302;48.796;11.978;2023-09-19T00:17:12;96485.38;;;17.26;44.84
25350;BME280;13302;48.796;11.978;2023-09-19T00:19:59;96488.19;;;17.26;44.95
25350;BME280;13302;48.796;11.978;2023-09-19T00:22:54;96488.19;;;17.26;45.22
25350;BME280;13302;48.796;11.978;2023-09-19T00:25:41;96493.75;;;17.26;45.21
25350;BME280;13302;48.796;11.978;2023-09-19T00:28:29;96491.38;;;17.25;45.06
25350;BME280;13302;48.796;11.978;2023-09-19T00:31:18;96495.75;;;17.26;45.25
25350;BME280;13302;48.796;11.978;2023-09-19T00:34:05;96491.38;;;17.25;44.94
25350;BME280;13302;48.796;11.978;2023-09-19T00:36:57;96491.78;;;17.23;45.11
25350;BME280;13302;48.796;11.978;2023-09-19T00:39:44;96501.34;;;17.22;44.92
25350;BME280;13302;48.796;11.978;2023-09-19T00:42:31;96499.38;;;17.23;44.86
25350;BME280;13302;48.796;11.978;2023-09-19T00:45:20;96493.00;;;17.19;45.13
25350;BME280;13302;48.796;11.978;2023-09-19T00:48:07;96494.56;;;17.20;45.35
25350;BME280;13302;48.796;11.978;2023-09-19T00:50:59;96496.56;;;17.16;45.31
25350;BME280;13302;48.796;11.978;2023-09-19T00:53:49;96490.59;;;17.17;45.06
25350;BME280;13302;48.796;11.978;2023-09-19T00:56:36;96496.59;;;17.19;45.11
25350;BME280;13302;48.796;11.978;2023-09-19T00:59:24;96479.84;;;17.19;45.16
25350;BME280;13302;48.796;11.978;2023-09-19T01:02:11;96487.00;;;17.20;44.98
25350;BME280;13302;48.796;11.978;2023-09-19T01:05:01;96500.94;;;17.20;45.18
25350;BME280;13302;48.796;11.978;2023-09-19T01:07:48;96502.94;;;17.20;45.23
25350;BME280;13302;48.796;11.978;2023-09-19T01:10:36;96503.75;;;17.20;44.97
25350;BME280;13302;48.796;11.978;2023-09-19T01:13:37;96498.97;;;17.17;45.22
25350;BME280;13302;48.796;11.978;2023-09-19T01:16:32;96508.97;;;17.18;45.07
25350;BME280;13302;48.796;11.978;2023-09-19T01:23:11;96506.19;;;17.15;45.13
25350;BME280;13302;48.796;11.978;2023-09-19T01:32:26;96528.09;;;17.13;45.09
25350;BME280;13302;48.796;11.978;2023-09-19T01:35:13;96526.47;;;17.12;45.31
25350;BME280;13302;48.796;11.978;2023-09-19T01:38:00;96530.88;;;17.13;44.95
25350;BME280;13302;48.796;11.978;2023-09-19T01:41:03;96520.91;;;17.12;45.04
25350;BME280;13302;48.796;11.978;2023-09-19T01:43:53;96525.72;;;17.11;45.40
25350;BME280;13302;48.796;11.978;2023-09-19T01:46:41;96530.06;;;17.12;45.33
25350;BME280;13302;48.796;11.978;2023-09-19T01:49:37;96522.50;;;17.13;45.33
25350;BME280;13302;48.796;11.978;2023-09-19T01:52:31;96526.47;;;17.12;45.50
25350;BME280;13302;48.796;11.978;2023-09-19T01:55:26;96527.28;;;17.12;45.25
25350;BME280;13302;48.796;11.978;2023-09-19T01:58:29;96530.47;;;17.14;45.56
25350;BME280;13302;48.796;11.978;2023-09-19T02:01:22;96515.72;;;17.14;45.13
25350;BME280;13302;48.796;11.978;2023-09-19T02:04:11;96521.72;;;17.16;45.15
25350;BME280;13302;48.796;11.978;2023-09-19T02:06:58;96520.53;;;17.17;45.59
25350;BME280;13302;48.796;11.978;2023-09-19T02:09:45;96523.72;;;17.19;45.43
25350;BME280;13302;48.796;11.978;2023-09-19T02:12:33;96530.09;;;17.19;45.21
25350;BME280;13302;48.796;11.978;2023-09-19T02:15:23;96523.72;;;17.19;45.40
25350;BME280;13302;48.796;11.978;2023-09-19T02:18:10;96530.09;;;17.19;45.22
25350;BME280;13302;48.796;11.978;2023-09-19T02:20:58;96534.09;;;17.18;45.47
25350;BME280;13302;48.796;11.978;2023-09-19T02:23:45;96527.72;;;17.18;45.40
25350;BME280;13302;48.796;11.978;2023-09-19T02:26:34;96528.09;;;17.16;45.44
25350;BME280;13302;48.796;11.978;2023-09-19T02:29:22;96526.91;;;17.17;45.38
25350;BME280;13302;48.796;11.978;2023-09-19T02:32:09;96532.88;;;17.16;45.21
25350;BME280;13302;48.796;11.978;2023-09-19T02:34:57;96535.28;;;17.17;45.44
25350;BME280;13302;48.796;11.978;2023-09-19T02:37:50;96528.09;;;17.16;45.27
25350;BME280;13302;48.796;11.978;2023-09-19T02:40:37;96532.09;;;17.19;45.37
25350;BME280;13302;48.796;11.978;2023-09-19T02:43:27;96542.88;;;17.17;45.24
25350;BME280;13302;48.796;11.978;2023-09-19T02:46:14;96536.47;;;17.16;45.48
25350;BME280;13302;48.796;11.978;2023-09-19T02:49:02;96537.69;;;17.19;45.13
25350;BME280;13302;48.796;11.978;2023-09-19T02:51:52;96546.47;;;17.17;45.18
25350;BME280;13302;48.796;11.978;2023-09-19T02:54:39;96546.47;;;17.17;45.40
25350;BME280;13302;48.796;11.978;2023-09-19T02:57:26;96537.69;;;17.15;45.02
25350;BME280;13302;48.796;11.978;2023-09-19T03:00:15;96540.84;;;17.14;45.28
25350;BME280;13302;48.796;11.978;2023-09-19T03:03:03;96549.22;;;17.14;45.07
25350;BME280;13302;48.796;11.978;2023-09-19T03:05:50;96554.41;;;17.12;45.11
25350;BME280;13302;48.796;11.978;2023-09-19T03:08:41;96558.44;;;17.11;45.03
25350;BME280;13302;48.796;11.978;2023-09-19T03:11:29;96567.19;;;17.09;45.53
25350;BME280;13302;48.796;11.978;2023-09-19T03:14:18;96564.78;;;17.08;45.18
25350;BME280;13302;48.796;11.978;2023-09-19T03:17:07;96564.41;;;17.09;45.36
25350;BME280;13302;48.796;11.978;2023-09-19T03:19:56;96574.78;;;17.09;45.51
25350;BME280;13302;48.796;11.978;2023-09-19T03:22:45;96578.38;;;17.09;45.33
25350;BME280;13302;48.796;11.978;2023-09-19T03:25:36;96589.16;;;17.07;45.25
25350;BME280;13302;48.796;11.978;2023-09-19T03:28:23;96585.94;;;17.09;45.29
25350;BME280;13302;48.796;11.978;2023-09-19T03:31:11;96590.72;;;17.08;45.00
25350;BME280;13302;48.796;11.978;2023-09-19T03:33:59;96594.31;;;17.09;45.05
25350;BME280;13302;48.796;11.978;2023-09-19T03:36:46;96591.94;;;17.07;45.13
25350;BME280;13302;48.796;11.978;2023-09-19T03:39:33;96584.34;;;17.08;45.33
25350;BME280;13302;48.796;11.978;2023-09-19T03:42:20;96585.94;;;17.09;44.92
25350;BME280;13302;48.796;11.978;2023-09-19T03:45:12;96593.94;;;17.07;45.00
25350;BME280;13302;48.796;11.978;2023-09-19T03:48:09;96599.91;;;17.05;45.26
25350;BME280;13302;48.796;11.978;2023-09-19T03:50:56;96605.91;;;17.07;44.99
25350;BME280;13302;48.796;11.978;2023-09-19T03:53:44;96592.72;;;17.08;44.81
25350;BME280;13302;48.796;11.978;2023-09-19T03:56:31;96596.72;;;17.07;45.03
25350;BME280;13302;48.796;11.978;2023-09-19T03:59:18;96589.53;;;17.06;44.73
25350;BME280;13302;48.796;11.978;2023-09-19T04:02:06;96588.75;;;17.05;45.06
25350;BME280;13302;48.796;11.978;2023-09-19T04:04:58;96601.53;;;17.06;44.95
25350;BME280;13302;48.796;11.978;2023-09-19T04:07:45;96608.28;;;17.05;44.67
25350;BME280;13302;48.796;11.978;2023-09-19T04:10:33;96612.28;;;17.04;45.02
25350;BME280;13302;48.796;11.978;2023-09-19T04:13:20;96599.13;;;17.05;44.66
25350;BME280;13302;48.796;11.978;2023-09-19T04:16:07;96606.69;;;17.04;44.75
25350;BME280;13302;48.796;11.978;2023-09-19T04:18:54;96607.91;;;17.03;44.71
25350;BME280;13302;48.796;11.978;2023-09-19T04:21:41;96598.72;;;17.03;44.51
25350;BME280;13302;48.796;11.978;2023-09-19T04:24:29;96613.50;;;17.03;44.66
25350;BME280;13302;48.796;11.978;2023-09-19T04:27:16;96619.84;;;17.04;44.78
25350;BME280;13302;48.796;11.978;2023-09-19T04:30:04;96624.66;;;17.03;44.58
25350;BME280;13302;48.796;11.978;2023-09-19T04:32:57;96619.09;;;17.03;44.85
25350;BME280;13302;48.796;11.978;2023-09-19T04:35:44;96619.84;;;17.04;44.50
25350;BME280;13302;48.796;11.978;2023-09-19T04:38:31;96619.09;;;17.03;45.02
25350;BME280;13302;48.796;11.978;2023-09-19T04:41:18;96622.25;;;17.02;44.76
25350;BME280;13302;48.796;11.978;2023-09-19T04:44:05;96624.25;;;17.01;44.74
25350;BME280;13302;48.796;11.978;2023-09-19T04:46:52;96632.63;;;17.01;44.94
25350;BME280;13302;48.796;11.978;2023-09-19T04:49:39;96626.25;;;17.00;44.84
25350;BME280;13302;48.796;11.978;2023-09-19T04:52:26;96637.41;;;17.00;44.83
25350;BME280;13302;48.796;11.978;2023-09-19T04:55:14;96639.03;;;17.02;45.13
25350;BME280;13302;48.796;11.978;2023-09-19T04:58:05;96638.22;;;17.01;45.04
25350;BME280;13302;48.796;11.978;2023-09-19T05:00:52;96648.19;;;16.98;45.09
25350;BME280;13302;48.796;11.978;2023-09-19T05:03:39;96652.56;;;16.99;45.16
25350;BME280;13302;48.796;11.978;2023-09-19T05:06:27;96648.19;;;16.98;45.24
25350;BME280;13302;48.796;11.978;2023-09-19T05:09:14;96653.38;;;17.00;45.42
25350;BME280;13302;48.796;11.978;2023-09-19T05:12:02;96641.41;;;16.99;45.39
25350;BME280;13302;48.796;11.978;2023-09-19T05:14:49;96654.97;;;17.01;45.38
25350;BME280;13302;48.796;11.978;2023-09-19T05:17:37;96653.38;;;17.00;45.75
25350;BME280;13302;48.796;11.978;2023-09-19T05:20:25;96650.19;;;17.02;45.77
25350;BME280;13302;48.796;11.978;2023-09-19T05:23:17;96652.19;;;17.01;45.87
25350;BME280;13302;48.796;11.978;2023-09-19T05:26:04;96654.16;;;17.00;45.95
25350;BME280;13302;48.796;11.978;2023-09-19T05:28:52;96652.19;;;17.01;46.02
25350;BME280;13302;48.796;11.978;2023-09-19T05:31:39;96662.53;;;17.00;45.89
25350;BME280;13302;48.796;11.978;2023-09-19T05:34:28;96664.16;;;17.02;45.94
25350;BME280;13302;48.796;11.978;2023-09-19T05:37:17;96666.53;;;16.99;46.23
25350;BME280;13302;48.796;11.978;2023-09-19T05:40:05;96665.34;;;17.00;45.84
25350;BME280;13302;48.796;11.978;2023-09-19T05:42:56;96675.31;;;17.02;46.17
25350;BME280;13302;48.796;11.978;2023-09-19T05:45:43;96682.91;;;17.01;46.05
25350;BME280;13302;48.796;11.978;2023-09-19T05:48:31;96666.94;;;16.98;46.30
25350;BME280;13302;48.796;11.978;2023-09-19T05:51:19;96675.72;;;17.00;46.66
25350;BME280;13302;48.796;11.978;2023-09-19T05:54:09;96682.09;;;17.00;46.54
25350;BME280;13302;48.796;11.978;2023-09-19T05:56:57;96674.91;;;16.99;46.50
25350;BME280;13302;48.796;11.978;2023-09-19T05:59:44;96678.50;;;17.00;46.86
25350;BME280;13302;48.796;11.978;2023-09-19T06:02:31;96671.34;;;16.99;46.51
25350;BME280;13302;48.796;11.978;2023-09-19T06:05:20;96678.91;;;16.98;47.03
25350;BME280;13302;48.796;11.978;2023-09-19T06:08:08;96673.34;;;16.98;46.83
25350;BME280;13302;48.796;11.978;2023-09-19T06:10:56;96674.91;;;16.99;47.05
25350;BME280;13302;48.796;11.978;2023-09-19T06:13:43;96684.50;;;16.98;46.73
25350;BME280;13302;48.796;11.978;2023-09-19T06:16:30;96688.09;;;16.99;47.03
25350;BME280;13302;48.796;11.978;2023-09-19T06:19:19;96696.88;;;16.97;47.07
25350;BME280;13302;48.796;11.978;2023-09-19T06:22:09;96699.28;;;16.99;47.17
25350;BME280;13302;48.796;11.978;2023-09-19T06:24:57;96690.91;;;16.99;47.22
25350;BME280;13302;48.796;11.978;2023-09-19T06:27:52;96696.47;;;16.99;47.33
25350;BME280;13302;48.796;11.978;2023-09-19T06:30:40;96697.25;;;16.99;47.54
25350;BME280;13302;48.796;11.978;2023-09-19T06:33:27;96701.25;;;17.02;47.40
25350;BME280;13302;48.796;11.978;2023-09-19T06:36:14;96705.25;;;17.05;47.56
25350;BME280;13302;48.796;11.978;2023-09-19T06:39:02;96709.63;;;17.06;47.32
25350;BME280;13302;48.796;11.978;2023-09-19T06:41:51;96711.63;;;17.05;47.64
25350;BME280;13302;48.796;11.978;2023-09-19T06:44:40;96714.84;;;17.07;47.55
25350;BME280;13302;48.796;11.978;2023-09-19T06:47:27;96719.19;;;17.08;47.75
25350;BME280;13302;48.796;11.978;2023-09-19T06:50:14;96727.19;;;17.10;47.87
25350;BME280;13302;48.796;11.978;2023-09-19T06:53:02;96728.00;;;17.10;47.62
25350;BME280;13302;48.796;11.978;2023-09-19T06:55:50;96724.78;;;17.12;47.49
25350;BME280;13302;48.796;11.978;2023-09-19T06:58:38;96733.16;;;17.12;47.33
25350;BME280;13302;48.796;11.978;2023-09-19T07:01:25;96749.53;;;17.13;47.79
25350;BME280;13302;48.796;11.978;2023-09-19T07:04:12;96736.03;;;17.15;47.81
25350;BME280;13302;48.796;11.978;2023-09-19T07:06:59;96740.00;;;17.18;47.43
25350;BME280;13302;48.796;11.978;2023-09-19T07:09:46;96744.78;;;17.21;47.23
25350;BME280;13302;48.796;11.978;2023-09-19T07:12:35;96746.78;;;17.24;47.23
25350;BME280;13302;48.796;11.978;2023-09-19T07:15:23;96750.78;;;17.26;47.33
25350;BME280;13302;48.796;11.978;2023-09-19T07:18:12;96746.81;;;17.27;47.24
25350;BME280;13302;48.796;11.978;2023-09-19T07:20:59;96748.38;;;17.28;47.57
25350;BME280;13302;48.796;11.978;2023-09-19T07:23:51;96743.59;;;17.29;47.27
25350;BME280;13302;48.796;11.978;2023-09-19T07:26:39;96748.41;;;17.32;47.18
25350;BME280;13302;48.796;11.978;2023-09-19T07:29:26;96752.41;;;17.34;47.35
25350;BME280;13302;48.796;11.978;2023-09-19T07:32:13;96756.00;;;17.38;47.67
25350;BME280;13302;48.796;11.978;2023-09-19T07:35:01;96756.38;;;17.40;47.45
25350;BME280;13302;48.796;11.978;2023-09-19T07:37:48;96756.41;;;17.44;47.32
25350;BME280;13302;48.796;11.978;2023-09-19T07:40:37;96764.38;;;17.45;46.98
25350;BME280;13302;48.796;11.978;2023-09-19T07:43:24;96770.38;;;17.48;46.91
25350;BME280;13302;48.796;11.978;2023-09-19T07:46:12;96763.16;;;17.50;46.63
25350;BME280;13302;48.796;11.978;2023-09-19T07:49:00;96764.78;;;17.51;46.77
25350;BME280;13302;48.796;11.978;2023-09-19T07:51:47;96769.56;;;17.54;47.05
25350;BME280;13302;48.796;11.978;2023-09-19T07:54:34;96766.75;;;17.58;46.62
25350;BME280;13302;48.796;11.978;2023-09-19T07:57:25;96768.75;;;17.57;46.88
25350;BME280;13302;48.796;11.978;2023-09-19T08:00:12;96767.19;;;17.60;46.66
25350;BME280;13302;48.796;11.978;2023-09-19T08:02:59;96766.75;;;17.61;46.46
25350;BME280;13302;48.796;11.978;2023-09-19T08:05:59;96768.78;;;17.64;46.56
25350;BME280;13302;48.796;11.978;2023-09-19T08:08:52;96775.16;;;17.65;46.56
25350;BME280;13302;48.796;11.978;2023-09-19T08:11:47;96779.94;;;17.68;46.52
25350;BME280;13302;48.796;11.978;2023-09-19T08:14:34;96780.75;;;17.68;46.25
25350;BME280;13302;48.796;11.978;2023-09-19T08:17:24;96782.34;;;17.69;46.32
25350;BME280;13302;48.796;11.978;2023-09-19T08:20:15;96791.13;;;17.71;46.28
25350;BME280;13302;48.796;11.978;2023-09-19T08:23:09;96777.97;;;17.72;46.04
25350;BME280;13302;48.796;11.978;2023-09-19T08:25:56;96775.97;;;17.72;46.16
25350;BME280;13302;48.796;11.978;2023-09-19T08:28:44;96788.72;;;17.73;46.36
25350;BME280;13302;48.796;11.978;2023-09-19T08:31:31;96795.09;;;17.77;45.99
25350;BME280;13302;48.796;11.978;2023-09-19T08:34:18;96789.94;;;17.76;46.02
25350;BME280;13302;48.796;11.978;2023-09-19T08:37:06;96794.34;;;17.77;45.65
25350;BME280;13302;48.796;11.978;2023-09-19T08:39:54;96787.53;;;17.78;45.42
25350;BME280;13302;48.796;11.978;2023-09-19T08:42:51;96790.72;;;17.80;45.96
25350;BME280;13302;48.796;11.978;2023-09-19T08:45:40;96784.34;;;17.83;45.74
25350;BME280;13302;48.796;11.978;2023-09-19T08:48:28;96781.97;;;17.88;45.81
25350;BME280;13302;48.796;11.978;2023-09-19T08:51:27;96793.16;;;17.92;45.40
25350;BME280;13302;48.796;11.978;2023-09-19T08:54:24;96793.53;;;17.94;44.75
25350;BME280;13302;48.796;11.978;2023-09-19T08:57:13;96793.56;;;17.98;45.14
25350;BME280;13302;48.796;11.978;2023-09-19T09:00:08;96798.34;;;18.01;44.80
25350;BME280;13302;48.796;11.978;2023-09-19T09:03:04;96787.94;;;18.01;45.07
25350;BME280;13302;48.796;11.978;2023-09-19T09:05:54;96791.94;;;18.04;44.66
25350;BME280;13302;48.796;11.978;2023-09-19T09:08:43;96803.53;;;18.06;44.73
25350;BME280;13302;48.796;11.978;2023-09-19T09:11:33;96789.94;;;18.08;44.79
25350;BME280;13302;48.796;11.978;2023-09-19T09:14:23;96808.69;;;18.11;44.70
25350;BME280;13302;48.796;11.978;2023-09-19T09:17:11;96805.09;;;18.10;44.79
25350;BME280;13302;48.796;11.978;2023-09-19T09:20:01;96813.91;;;18.12;44.87
25350;BME280;13302;48.796;11.978;2023-09-19T09:22:55;96813.09;;;18.12;44.69
25350;BME280;13302;48.796;11.978;2023-09-19T09:25:54;96821.88;;;18.10;45.41
25350;BME280;13302;48.796;11.978;2023-09-19T09:28:46;96824.69;;;18.14;45.41
25350;BME280;13302;48.796;11.978;2023-09-19T09:31:37;96837.06;;;18.16;45.72
25350;BME280;13302;48.796;11.978;2023-09-19T09:34:33;96851.06;;;18.13;46.20
25350;BME280;13302;48.796;11.978;2023-09-19T09:37:21;96846.66;;;18.12;46.13
25350;BME280;13302;48.796;11.978;2023-09-19T09:40:09;96848.66;;;18.11;46.26
25350;BME280;13302;48.796;11.978;2023-09-19T09:43:01;96871.84;;;18.08;46.33
25350;BME280;13302;48.796;11.978;2023-09-19T09:46:06;96867.84;;;18.02;46.71
25350;BME280;13302;48.796;11.978;2023-09-19T09:49:05;96875.44;;;17.98;46.26
25350;BME280;13302;48.796;11.978;2023-09-19T09:52:16;96884.22;;;17.89;46.19
25350;BME280;13302;48.796;11.978;2023-09-19T09:55:04;96874.63;;;17.83;46.40
25350;BME280;13302;48.796;11.978;2023-09-19T09:58:17;96880.22;;;17.76;46.34
25350;BME280;13302;48.796;11.978;2023-09-19T10:01:12;96885.00;;;17.69;46.27
25350;BME280;13302;48.796;11.978;2023-09-19T10:04:02;96885.38;;;17.64;46.32
25350;BME280;13302;48.796;11.978;2023-09-19T10:06:50;96894.97;;;17.59;46.43
25350;BME280;13302;48.796;11.978;2023-09-19T10:09:47;96884.16;;;17.54;46.90
25350;BME280;13302;48.796;11.978;2023-09-19T10:12:38;96889.38;;;17.52;46.72
25350;BME280;13302;48.796;11.978;2023-09-19T10:15:32;96887.34;;;17.49;46.72
25350;BME280;13302;48.796;11.978;2023-09-19T10:18:21;96886.16;;;17.47;46.96
25350;BME280;13302;48.796;11.978;2023-09-19T10:21:09;96894.53;;;17.47;46.55
25350;BME280;13302;48.796;11.978;2023-09-19T10:24:00;96899.31;;;17.46;46.74
25350;BME280;13302;48.796;11.978;2023-09-19T10:26:49;96901.72;;;17.44;46.76
25350;BME280;13302;48.796;11.978;2023-09-19T10:29:41;96908.50;;;17.43;46.90
25350;BME280;13302;48.796;11.978;2023-09-19T10:32:29;96916.88;;;17.39;46.50
25350;BME280;13302;48.796;11.978;2023-09-19T10:35:21;96918.88;;;17.39;46.18
25350;BME280;13302;48.796;11.978;2023-09-19T10:38:13;96916.06;;;17.39;46.00
25350;BME280;13302;48.796;11.978;2023-09-19T10:41:05;96913.66;;;17.34;46.15
25350;BME280;13302;48.796;11.978;2023-09-19T10:43:53;96906.47;;;17.29;46.24
25350;BME280;13302;48.796;11.978;2023-09-19T10:46:44;96902.88;;;17.32;45.96
25350;BME280;13302;48.796;11.978;2023-09-19T10:49:32;96903.28;;;17.31;45.97
25350;BME280;13302;48.796;11.978;2023-09-19T10:52:24;96900.06;;;17.29;45.95
25350;BME280;13302;48.796;11.978;2023-09-19T10:55:17;96899.66;;;17.27;46.42
25350;BME280;13302;48.796;11.978;2023-09-19T10:58:06;96900.47;;;17.27;46.85
25350;BME280;13302;48.796;11.978;2023-09-19T11:01:01;96895.69;;;17.28;46.39
25350;BME280;13302;48.796;11.978;2023-09-19T11:04:23;96890.88;;;17.25;47.34
25350;BME280;13302;48.796;11.978;2023-09-19T11:07:12;96893.66;;;17.25;47.33
25350;BME280;13302;48.796;11.978;2023-09-19T11:10:01;96893.28;;;17.30;47.49
25350;BME280;13302;48.796;11.978;2023-09-19T11:12:50;96894.47;;;17.32;47.16
25350;BME280;13302;48.796;11.978;2023-09-19T11:18:51;96891.72;;;17.36;46.80
25350;BME280;13302;48.796;11.978;2023-09-19T11:21:40;96895.28;;;17.36;46.75
25350;BME280;13302;48.796;11.978;2023-09-19T11:24:30;96889.31;;;17.41;46.68
25350;BME280;13302;48.796;11.978;2023-09-19T11:27:18;96884.16;;;17.47;46.86
25350;BME280;13302;48.796;11.978;2023-09-19T11:30:26;96880.56;;;17.54;46.82
25350;BME280;13302;48.796;11.978;2023-09-19T11:36:35;96873.41;;;17.70;46.56
25350;BME280;13302;48.796;11.978;2023-09-19T11:39:26;96873.00;;;17.79;46.54
25350;BME280;13302;48.796;11.978;2023-09-19T11:42:43;96879.84;;;17.88;46.46
25350;BME280;13302;48.796;11.978;2023-09-19T11:48:38;96868.25;;;18.01;46.00
25350;BME280;13302;48.796;11.978;2023-09-19T11:51:28;96852.28;;;18.05;45.43
25350;BME280;13302;48.796;11.978;2023-09-19T11:54:16;96847.88;;;18.11;45.57
25350;BME280;13302;48.796;11.978;2023-09-19T11:57:05;96855.44;;;18.10;45.44
25350;BME280;13302;48.796;11.978;2023-09-19T11:59:53;96851.44;;;18.15;45.04
25350;BME280;13302;48.796;11.978;2023-09-19T12:02:46;96855.03;;;18.19;45.22
25350;BME280;13302;48.796;11.978;2023-09-19T12:05:34;96853.06;;;18.19;44.54
25350;BME280;13302;48.796;11.978;2023-09-19T12:08:21;96848.66;;;18.25;44.52
25350;BME280;13302;48.796;11.978;2023-09-19T12:11:14;96852.25;;;18.29;44.66
25350;BME280;13302;48.796;11.978;2023-09-19T12:14:02;96849.06;;;18.34;44.69
25350;BME280;13302;48.796;11.978;2023-09-19T12:16:55;96844.63;;;18.41;44.60
25350;BME280;13302;48.796;11.978;2023-09-19T12:19:51;96844.63;;;18.44;44.61
25350;BME280;13302;48.796;11.978;2023-09-19T12:22:44;96860.19;;;18.52;44.51
25350;BME280;13302;48.796;11.978;2023-09-19T12:25:43;96847.00;;;18.56;43.50
25350;BME280;13302;48.796;11.978;2023-09-19T12:28:41;96838.22;;;18.58;43.33
25350;BME280;13302;48.796;11.978;2023-09-19T12:31:29;96851.00;;;18.62;43.58
25350;BME280;13302;48.796;11.978;2023-09-19T12:34:23;96848.22;;;18.62;42.96
25350;BME280;13302;48.796;11.978;2023-09-19T12:37:15;96852.19;;;18.65;42.96
25350;BME280;13302;48.796;11.978;2023-09-19T12:40:09;96833.41;;;18.65;42.72
25350;BME280;13302;48.796;11.978;2023-09-19T12:43:09;96838.19;;;18.68;42.73
25350;BME280;13302;48.796;11.978;2023-09-19T12:46:02;96831.38;;;18.69;42.82
25350;BME280;13302;48.796;11.978;2023-09-19T12:49:16;96829.75;;;18.72;41.94
25350;BME280;13302;48.796;11.978;2023-09-19T12:52:04;96833.78;;;18.71;42.39
25350;BME280;13302;48.796;11.978;2023-09-19T12:54:51;96830.97;;;18.74;42.55
25350;BME280;13302;48.796;11.978;2023-09-19T12:57:40;96822.16;;;18.79;42.44
25350;BME280;13302;48.796;11.978;2023-09-19T13:00:39;96822.94;;;18.84;41.97
25350;BME280;13302;48.796;11.978;2023-09-19T13:03:27;96828.91;;;18.86;42.08
25350;BME280;13302;48.796;11.978;2023-09-19T13:06:36;96844.13;;;18.88;41.64
25350;BME280;13302;48.796;11.978;2023-09-19T13:09:25;96823.31;;;18.86;41.28
25350;BME280;13302;48.796;11.978;2023-09-19T13:12:38;96824.50;;;18.85;41.13
25350;BME280;13302;48.796;11.978;2023-09-19T13:15:25;96829.72;;;18.86;41.04
25350;BME280;13302;48.796;11.978;2023-09-19T13:18:16;96842.53;;;18.87;41.14
25350;BME280;13302;48.796;11.978;2023-09-19T13:21:07;96824.53;;;18.88;41.25
25350;BME280;13302;48.796;11.978;2023-09-19T13:24:23;96822.50;;;18.89;41.10
25350;BME280;13302;48.796;11.978;2023-09-19T13:27:13;96814.50;;;18.91;41.67
25350;BME280;13302;48.796;11.978;2023-09-19T13:30:00;96814.47;;;18.94;41.66
25350;BME280;13302;48.796;11.978;2023-09-19T13:32:47;96821.69;;;18.95;41.29
25350;BME280;13302;48.796;11.978;2023-09-19T13:35:35;96812.84;;;18.97;41.50
25350;BME280;13302;48.796;11.978;2023-09-19T13:38:24;96815.25;;;18.98;41.34
25350;BME280;13302;48.796;11.978;2023-09-19T13:41:12;96804.84;;;18.99;41.24
25350;BME280;13302;48.796;11.978;2023-09-19T13:43:59;96808.03;;;19.01;41.34
25350;BME280;13302;48.796;11.978;2023-09-19T13:46:46;96814.03;;;19.03;41.73
25350;BME280;13302;48.796;11.978;2023-09-19T13:49:34;96806.00;;;19.05;41.78
25350;BME280;13302;48.796;11.978;2023-09-19T13:52:22;96809.22;;;19.07;41.49
25350;BME280;13302;48.796;11.978;2023-09-19T13:55:10;96811.19;;;19.10;41.35
25350;BME280;13302;48.796;11.978;2023-09-19T13:57:57;96797.16;;;19.10;40.50
25350;BME280;13302;48.796;11.978;2023-09-19T14:00:44;96800.38;;;19.12;40.37
25350;BME280;13302;48.796;11.978;2023-09-19T14:03:31;96787.56;;;19.11;40.11
25350;BME280;13302;48.796;11.978;2023-09-19T14:06:18;96796.81;;;19.08;40.31
25350;BME280;13302;48.796;11.978;2023-09-19T14:09:05;96785.16;;;19.09;39.73
25350;BME280;13302;48.796;11.978;2023-09-19T14:11:55;96794.38;;;19.10;40.08
25350;BME280;13302;48.796;11.978;2023-09-19T14:14:42;96793.56;;;19.09;39.88
25350;BME280;13302;48.796;11.978;2023-09-19T14:17:29;96785.97;;;19.10;40.09
25350;BME280;13302;48.796;11.978;2023-09-19T14:20:17;96787.94;;;19.13;40.06
25350;BME280;13302;48.796;11.978;2023-09-19T14:23:04;96780.34;;;19.13;39.97
25350;BME280;13302;48.796;11.978;2023-09-19T14:25:51;96774.34;;;19.15;39.96
25350;BME280;13302;48.796;11.978;2023-09-19T14:28:40;96774.69;;;19.17;40.44
25350;BME280;13302;48.796;11.978;2023-09-19T14:31:28;96768.34;;;19.20;40.15
25350;BME280;13302;48.796;11.978;2023-09-19T14:34:15;96769.94;;;19.21;40.31
25350;BME280;13302;48.796;11.978;2023-09-19T14:37:03;96767.91;;;19.21;39.87
25350;BME280;13302;48.796;11.978;2023-09-19T14:39:51;96772.75;;;19.21;39.91
25350;BME280;13302;48.796;11.978;2023-09-19T14:42:39;96769.94;;;19.21;39.68
25350;BME280;13302;48.796;11.978;2023-09-19T14:45:26;96765.53;;;19.20;39.60
25350;BME280;13302;48.796;11.978;2023-09-19T14:48:13;96771.13;;;19.20;39.31
25350;BME280;13302;48.796;11.978;2023-09-19T14:51:04;96766.28;;;19.17;39.39
25350;BME280;13302;48.796;11.978;2023-09-19T14:53:52;96772.69;;;19.17;39.55
25350;BME280;13302;48.796;11.978;2023-09-19T14:56:39;96770.31;;;19.16;39.74
25350;BME280;13302;48.796;11.978;2023-09-19T14:59:31;96760.69;;;19.17;39.48
25350;BME280;13302;48.796;11.978;2023-09-19T15:02:19;96763.50;;;19.17;39.26
25350;BME280;13302;48.796;11.978;2023-09-19T15:05:06;96754.72;;;19.15;38.87
25350;BME280;13302;48.796;11.978;2023-09-19T15:07:55;96756.31;;;19.16;39.17